Time;durP1;ratioP1;P1;durP2;ratioP2;P2;SDS_P1;SDS_P2;PMS_P1;PMS_P2;Temp;Humidity;BMP_temperature;BMP_pressure;BME280_temperature;BME280_humidity;BME280_pressure;Samples;Min_cycle;Max_cycle;Signal;HPM_P1;HPM_P2
2021/12/06 00:01:02;;;;;;;0.60;0.60;;;;;;;;;;5074251;28;20160;-67
2021/12/06 00:03:48;;;;;;;0.50;0.50;;;;;;;;;;5074366;28;20278;-67
2021/12/06 00:06:15;;;;;;;0.50;0.50;;;;;;;;;;5074152;28;20222;-66
2021/12/06 00:08:41;;;;;;;0.50;0.50;;;;;;;;;;5074375;28;20176;-67
2021/12/06 00:11:09;;;;;;;0.50;0.50;;;;;;;;;;5056068;28;20179;-66
2021/12/06 00:13:40;;;;;;;0.50;0.50;;;;;;;;;;5074440;28;20715;-67
2021/12/06 00:16:11;;;;;;;0.50;0.50;;;;;;;;;;5074373;28;20202;-67
2021/12/06 00:18:37;;;;;;;0.50;0.50;;;;;;;;;;5073359;28;20175;-67
2021/12/06 00:21:04;;;;;;;0.50;0.50;;;;;;;;;;5074126;28;20579;-67
2021/12/06 00:23:30;;;;;;;0.50;0.50;;;;;;;;;;5073992;28;20206;-67
2021/12/06 00:25:57;;;;;;;0.50;0.50;;;;;;;;;;5074130;28;20555;-67
2021/12/06 00:28:23;;;;;;;0.43;0.43;;;;;;;;;;5056048;28;20171;-66
2021/12/06 00:30:50;;;;;;;0.50;0.50;;;;;;;;;;5073799;28;20305;-66
2021/12/06 00:33:16;;;;;;;0.50;0.50;;;;;;;;;;5073844;28;20185;-67
2021/12/06 00:35:42;;;;;;;0.50;0.50;;;;;;;;;;5073841;28;20195;-67
2021/12/06 00:38:08;;;;;;;0.60;0.60;;;;;;;;;;5073840;28;20202;-67
2021/12/06 00:40:37;;;;;;;0.50;0.50;;;;;;;;;;5073534;28;20179;-66
2021/12/06 00:43:04;;;;;;;0.50;0.50;;;;;;;;;;5073879;28;20287;-67
2021/12/06 00:45:30;;;;;;;0.50;0.50;;;;;;;;;;5073779;28;20589;-66
2021/12/06 00:47:56;;;;;;;0.60;0.60;;;;;;;;;;5073694;28;20677;-67
2021/12/06 00:50:23;;;;;;;0.60;0.60;;;;;;;;;;5073391;28;20551;-67
2021/12/06 00:52:49;;;;;;;0.50;0.50;;;;;;;;;;5073451;28;20262;-67
2021/12/06 00:55:16;;;;;;;0.60;0.60;;;;;;;;;;5055474;28;20206;-67
2021/12/06 00:57:42;;;;;;;0.40;0.40;;;;;;;;;;5073516;28;20171;-67
2021/12/06 01:00:37;;;;;;;0.60;0.60;;;;;;;;;;5073278;28;20164;-67
2021/12/06 01:03:05;;;;;;;0.50;0.50;;;;;;;;;;5060090;28;20249;-67
2021/12/06 01:05:31;;;;;;;0.50;0.50;;;;;;;;;;5073338;28;20197;-66
2021/12/06 01:07:57;;;;;;;0.50;0.50;;;;;;;;;;5073259;28;20179;-67
2021/12/06 01:10:24;;;;;;;0.50;0.50;;;;;;;;;;5072994;28;20651;-67
2021/12/06 01:12:50;;;;;;;0.60;0.60;;;;;;;;;;5054774;28;20474;-67
2021/12/06 01:15:17;;;;;;;0.50;0.50;;;;;;;;;;5073267;28;20228;-67
2021/12/06 01:17:43;;;;;;;0.50;0.50;;;;;;;;;;5072985;28;20179;-67
2021/12/06 01:20:11;;;;;;;0.50;0.50;;;;;;;;;;5072830;28;20196;-66
2021/12/06 01:22:47;;;;;;;0.50;0.50;;;;;;;;;;5072972;28;20229;-67
2021/12/06 01:25:31;;;;;;;0.50;0.50;;;;;;;;;;5072936;28;20168;-66
2021/12/06 01:31:37;;;;;;;0.50;0.50;;;;;;;;;;5072650;28;20214;-66
2021/12/06 01:34:04;;;;;;;0.50;0.50;;;;;;;;;;5059136;28;20202;-67
2021/12/06 01:39:17;;;;;;;0.60;0.60;;;;;;;;;;5072986;28;20198;-66
2021/12/06 01:41:54;;;;;;;0.50;0.50;;;;;;;;;;5072436;28;20175;-66
2021/12/06 01:44:22;;;;;;;0.50;0.50;;;;;;;;;;5072420;28;20183;-67
2021/12/06 01:46:56;;;;;;;0.50;0.50;;;;;;;;;;5072576;28;20266;-66
2021/12/06 01:49:24;;;;;;;0.50;0.50;;;;;;;;;;5072474;28;20247;-66
2021/12/06 01:51:51;;;;;;;0.50;0.50;;;;;;;;;;5072126;28;20520;-67
2021/12/06 01:54:18;;;;;;;0.50;0.50;;;;;;;;;;5072325;28;20171;-67
2021/12/06 01:56:44;;;;;;;0.43;0.43;;;;;;;;;;5054258;28;20229;-67
2021/12/06 01:59:10;;;;;;;0.50;0.50;;;;;;;;;;5072312;28;20250;-67
2021/12/06 02:01:36;;;;;;;0.50;0.50;;;;;;;;;;5072095;28;20643;-66
2021/12/06 02:04:03;;;;;;;0.50;0.50;;;;;;;;;;5072166;28;20329;-66
2021/12/06 02:06:29;;;;;;;0.60;0.60;;;;;;;;;;5071043;28;20218;-67
2021/12/06 02:08:58;;;;;;;0.50;0.50;;;;;;;;;;5071784;28;20178;-66
2021/12/06 02:11:26;;;;;;;0.43;0.43;;;;;;;;;;5071202;28;20368;-67
2021/12/06 02:14:01;;;;;;;0.50;0.50;;;;;;;;;;5071906;28;20566;-67
2021/12/06 02:16:38;;;;;;;0.60;0.60;;;;;;;;;;5072003;28;20681;-67
2021/12/06 02:19:06;;;;;;;0.50;0.50;;;;;;;;;;5054062;28;20507;-66
2021/12/06 02:21:34;;;;;;;0.68;0.68;;;;;;;;;;5071729;28;20661;-67
2021/12/06 02:24:04;;;;;;;0.50;0.50;;;;;;;;;;5071771;28;20194;-67
2021/12/06 02:26:30;;;;;;;0.50;0.50;;;;;;;;;;5071971;28;20185;-67
2021/12/06 02:28:56;;;;;;;0.60;0.60;;;;;;;;;;5072152;28;20184;-67
2021/12/06 02:31:23;;;;;;;0.50;0.50;;;;;;;;;;5071671;28;20415;-66
2021/12/06 02:33:49;;;;;;;0.50;0.50;;;;;;;;;;5053668;28;20196;-68
2021/12/06 02:36:19;;;;;;;0.60;0.60;;;;;;;;;;5071563;28;20195;-67
2021/12/06 02:38:46;;;;;;;0.50;0.50;;;;;;;;;;5053772;28;20465;-67
2021/12/06 02:41:12;;;;;;;0.40;0.40;;;;;;;;;;5071170;28;20261;-67
2021/12/06 02:43:40;;;;;;;0.50;0.50;;;;;;;;;;5071677;28;20718;-66
2021/12/06 02:46:06;;;;;;;0.50;0.50;;;;;;;;;;5053798;28;20164;-67
2021/12/06 02:48:32;;;;;;;0.50;0.50;;;;;;;;;;5071699;28;20176;-67
2021/12/06 02:51:00;;;;;;;0.50;0.50;;;;;;;;;;5071311;28;20171;-67
2021/12/06 02:53:27;;;;;;;0.50;0.50;;;;;;;;;;5053527;28;20196;-67
2021/12/06 02:55:57;;;;;;;0.60;0.60;;;;;;;;;;5053505;28;20702;-67
2021/12/06 03:01:02;;;;;;;0.50;0.50;;;;;;;;;;5071416;28;20172;-67
2021/12/06 03:03:28;;;;;;;0.50;0.50;;;;;;;;;;5071299;28;20198;-67
2021/12/06 03:05:55;;;;;;;0.50;0.50;;;;;;;;;;5071549;28;20171;-67
2021/12/06 03:08:40;;;;;;;0.50;0.50;;;;;;;;;;5071431;28;20403;-67
2021/12/06 03:11:08;;;;;;;0.50;0.50;;;;;;;;;;5071265;28;20199;-67
2021/12/06 03:13:34;;;;;;;0.50;0.50;;;;;;;;;;5103820;22;20222;-62
2021/12/06 03:16:01;;;;;;;0.50;0.50;;;;;;;;;;5091616;28;20951;-62
2021/12/06 03:18:27;;;;;;;0.50;0.50;;;;;;;;;;5091663;28;20620;-64
2021/12/06 03:20:53;;;;;;;0.50;0.50;;;;;;;;;;5091275;28;20206;-63
2021/12/06 03:23:18;;;;;;;0.40;0.40;;;;;;;;;;5091481;28;20190;-64
2021/12/06 03:25:45;;;;;;;0.50;0.50;;;;;;;;;;5091557;28;20177;-64
2021/12/06 03:28:11;;;;;;;0.50;0.50;;;;;;;;;;5091533;28;20461;-65
2021/12/06 03:30:37;;;;;;;0.50;0.50;;;;;;;;;;5091231;28;20204;-65
2021/12/06 03:33:03;;;;;;;0.50;0.50;;;;;;;;;;5091353;28;20250;-63
2021/12/06 03:35:29;;;;;;;0.50;0.50;;;;;;;;;;5091137;28;20459;-64
2021/12/06 03:37:55;;;;;;;0.45;0.45;;;;;;;;;;5091366;28;20428;-63
2021/12/06 03:40:20;;;;;;;0.50;0.50;;;;;;;;;;5091213;28;20182;-64
2021/12/06 03:42:47;;;;;;;0.50;0.50;;;;;;;;;;5091224;28;20218;-64
2021/12/06 03:45:13;;;;;;;0.50;0.50;;;;;;;;;;5091261;28;20485;-62
2021/12/06 03:47:39;;;;;;;0.50;0.50;;;;;;;;;;5091172;28;20659;-65
2021/12/06 03:50:06;;;;;;;0.50;0.50;;;;;;;;;;5091059;28;20410;-65
2021/12/06 03:52:32;;;;;;;0.50;0.50;;;;;;;;;;5091234;28;20232;-64
2021/12/06 03:54:59;;;;;;;0.50;0.50;;;;;;;;;;5094425;28;20221;-64
2021/12/06 03:57:25;;;;;;;0.50;0.50;;;;;;;;;;5076558;28;20641;-64
2021/12/06 03:59:52;;;;;;;0.50;0.50;;;;;;;;;;5094802;28;20167;-64
2021/12/06 04:02:20;;;;;;;0.50;0.50;;;;;;;;;;5094431;28;20280;-64
2021/12/06 04:04:46;;;;;;;0.50;0.50;;;;;;;;;;5094736;28;20178;-64
2021/12/06 04:07:12;;;;;;;0.40;0.40;;;;;;;;;;5094722;28;20178;-64
2021/12/06 04:09:38;;;;;;;0.50;0.50;;;;;;;;;;5076402;28;20640;-63
2021/12/06 04:12:06;;;;;;;0.50;0.50;;;;;;;;;;5076247;28;20190;-65
2021/12/06 04:14:32;;;;;;;0.60;0.60;;;;;;;;;;5094324;28;20212;-64
2021/12/06 04:16:58;;;;;;;0.50;0.50;;;;;;;;;;5094311;28;20191;-64
2021/12/06 04:19:24;;;;;;;0.50;0.50;;;;;;;;;;5094456;28;20247;-64
2021/12/06 04:21:51;;;;;;;0.50;0.50;;;;;;;;;;5094190;28;20836;-64
2021/12/06 04:24:16;;;;;;;0.50;0.50;;;;;;;;;;5094267;28;20801;-64
2021/12/06 04:26:43;;;;;;;0.50;0.50;;;;;;;;;;5094343;28;20167;-64
2021/12/06 04:29:09;;;;;;;0.50;0.50;;;;;;;;;;5094335;28;20402;-63
2021/12/06 04:31:39;;;;;;;0.50;0.50;;;;;;;;;;5093936;28;20641;-64
2021/12/06 04:34:05;;;;;;;0.50;0.50;;;;;;;;;;5075973;28;20239;-64
2021/12/06 04:36:31;;;;;;;0.50;0.50;;;;;;;;;;5094036;28;20210;-64
2021/12/06 04:38:58;;;;;;;0.50;0.50;;;;;;;;;;5094169;28;20180;-64
2021/12/06 04:41:24;;;;;;;0.50;0.50;;;;;;;;;;5093778;28;20176;-63
2021/12/06 04:43:50;;;;;;;0.60;0.60;;;;;;;;;;5093846;28;20285;-64
2021/12/06 04:46:16;;;;;;;0.50;0.50;;;;;;;;;;5093874;28;20180;-64
2021/12/06 04:48:42;;;;;;;0.50;0.50;;;;;;;;;;5093900;28;20187;-64
2021/12/06 04:51:08;;;;;;;0.60;0.60;;;;;;;;;;5093782;28;20258;-65
2021/12/06 04:53:38;;;;;;;0.50;0.50;;;;;;;;;;5093765;28;20247;-65
2021/12/06 04:56:04;;;;;;;0.50;0.50;;;;;;;;;;5093689;28;20860;-65
2021/12/06 04:58:31;;;;;;;0.50;0.50;;;;;;;;;;5093671;28;20211;-65
2021/12/06 05:01:05;;;;;;;0.50;0.50;;;;;;;;;;5075088;28;20413;-65
2021/12/06 05:03:33;;;;;;;0.60;0.60;;;;;;;;;;5093504;28;20191;-64
2021/12/06 05:06:01;;;;;;;0.50;0.50;;;;;;;;;;5093202;28;20176;-65
2021/12/06 05:08:31;;;;;;;0.50;0.50;;;;;;;;;;5093535;28;20240;-64
2021/12/06 05:10:58;;;;;;;0.50;0.50;;;;;;;;;;5093283;28;20238;-65
2021/12/06 05:13:30;;;;;;;0.50;0.50;;;;;;;;;;5093084;28;20259;-65
2021/12/06 05:15:56;;;;;;;0.60;0.60;;;;;;;;;;5093375;28;20564;-65
2021/12/06 05:18:22;;;;;;;0.55;0.55;;;;;;;;;;5093307;28;20176;-64
2021/12/06 05:20:48;;;;;;;0.40;0.40;;;;;;;;;;5093188;28;20177;-65
2021/12/06 05:23:14;;;;;;;0.40;0.40;;;;;;;;;;5093219;28;20221;-65
2021/12/06 05:25:41;;;;;;;0.50;0.50;;;;;;;;;;5093056;28;20231;-65
2021/12/06 05:28:07;;;;;;;0.50;0.50;;;;;;;;;;5093174;28;20184;-65
2021/12/06 05:30:36;;;;;;;0.60;0.60;;;;;;;;;;5092802;28;20200;-65
2021/12/06 05:33:02;;;;;;;0.40;0.40;;;;;;;;;;5092937;28;20189;-64
2021/12/06 05:35:28;;;;;;;0.57;0.57;;;;;;;;;;5092871;28;20172;-65
2021/12/06 05:37:55;;;;;;;0.50;0.50;;;;;;;;;;5092975;28;20203;-65
2021/12/06 05:40:23;;;;;;;0.50;0.50;;;;;;;;;;5074681;28;20226;-65
2021/12/06 05:42:49;;;;;;;0.50;0.50;;;;;;;;;;5093021;28;20194;-64
2021/12/06 05:45:17;;;;;;;0.50;0.50;;;;;;;;;;5092809;28;20635;-64
2021/12/06 05:47:43;;;;;;;0.50;0.50;;;;;;;;;;5092754;28;20163;-63
2021/12/06 05:50:09;;;;;;;0.50;0.50;;;;;;;;;;5092532;28;20307;-64
2021/12/06 05:52:35;;;;;;;0.50;0.50;;;;;;;;;;5092557;28;20174;-64
2021/12/06 05:55:03;;;;;;;0.50;0.50;;;;;;;;;;5092480;28;20239;-64
2021/12/06 05:57:29;;;;;;;0.50;0.50;;;;;;;;;;5092453;28;20206;-64
2021/12/06 05:59:55;;;;;;;0.50;0.50;;;;;;;;;;5092445;28;20187;-64
2021/12/06 06:02:22;;;;;;;0.50;0.50;;;;;;;;;;5092264;28;20177;-64
2021/12/06 06:04:48;;;;;;;0.50;0.50;;;;;;;;;;5092452;28;20572;-64
2021/12/06 06:07:14;;;;;;;0.50;0.50;;;;;;;;;;5092430;28;20178;-65
2021/12/06 06:09:40;;;;;;;0.60;0.60;;;;;;;;;;5092295;28;20948;-64
2021/12/06 06:12:06;;;;;;;0.60;0.60;;;;;;;;;;5073835;28;20180;-65
2021/12/06 06:14:33;;;;;;;0.50;0.50;;;;;;;;;;5091963;28;20455;-64
2021/12/06 06:17:08;;;;;;;0.50;0.50;;;;;;;;;;5091400;28;20616;-64
2021/12/06 06:19:34;;;;;;;0.50;0.50;;;;;;;;;;5092202;28;20261;-64
2021/12/06 06:22:00;;;;;;;0.50;0.50;;;;;;;;;;5091874;28;20690;-64
2021/12/06 06:24:26;;;;;;;0.60;0.60;;;;;;;;;;5092137;28;20223;-64
2021/12/06 06:26:52;;;;;;;0.50;0.50;;;;;;;;;;5092053;28;20417;-64
2021/12/06 06:29:18;;;;;;;0.50;0.50;;;;;;;;;;5092166;28;20404;-64
2021/12/06 06:31:44;;;;;;;0.60;0.60;;;;;;;;;;5091815;28;20183;-64
2021/12/06 06:34:10;;;;;;;0.50;0.50;;;;;;;;;;5091921;28;20840;-64
2021/12/06 06:36:36;;;;;;;0.50;0.50;;;;;;;;;;5091847;28;20595;-64
2021/12/06 06:39:03;;;;;;;0.50;0.50;;;;;;;;;;5091952;28;20515;-63
2021/12/06 06:41:31;;;;;;;0.60;0.60;;;;;;;;;;5091689;28;20289;-64
2021/12/06 06:43:57;;;;;;;0.50;0.50;;;;;;;;;;5091819;28;20184;-65
2021/12/06 06:46:23;;;;;;;0.60;0.60;;;;;;;;;;5091847;28;20182;-64
2021/12/06 06:48:49;;;;;;;0.50;0.50;;;;;;;;;;5091769;28;20261;-65
2021/12/06 06:51:15;;;;;;;0.60;0.60;;;;;;;;;;5091393;28;20414;-64
2021/12/06 06:53:41;;;;;;;0.50;0.50;;;;;;;;;;5091560;28;20478;-64
2021/12/06 06:56:07;;;;;;;0.50;0.50;;;;;;;;;;5091621;28;20194;-64
2021/12/06 06:58:33;;;;;;;0.50;0.50;;;;;;;;;;5091626;28;20238;-65
2021/12/06 07:00:59;;;;;;;0.50;0.50;;;;;;;;;;5091600;28;20642;-65
2021/12/06 07:03:29;;;;;;;0.50;0.50;;;;;;;;;;5091645;28;20425;-64
2021/12/06 07:05:56;;;;;;;0.50;0.50;;;;;;;;;;5091649;28;20193;-65
2021/12/06 07:08:22;;;;;;;0.50;0.50;;;;;;;;;;5091741;28;20175;-64
2021/12/06 07:10:50;;;;;;;0.50;0.50;;;;;;;;;;5091507;28;20170;-64
2021/12/06 07:13:17;;;;;;;0.40;0.40;;;;;;;;;;5091105;28;20457;-64
2021/12/06 07:15:43;;;;;;;0.50;0.50;;;;;;;;;;5091844;28;20369;-65
2021/12/06 07:18:09;;;;;;;0.40;0.40;;;;;;;;;;5091593;28;20170;-64
2021/12/06 07:20:36;;;;;;;0.50;0.50;;;;;;;;;;5091290;28;20175;-65
2021/12/06 07:23:03;;;;;;;0.50;0.50;;;;;;;;;;5091505;28;20413;-64
2021/12/06 07:25:29;;;;;;;0.50;0.50;;;;;;;;;;5091389;28;20210;-65
2021/12/06 07:27:56;;;;;;;0.50;0.50;;;;;;;;;;5093120;28;20178;-64
2021/12/06 07:30:22;;;;;;;0.50;0.50;;;;;;;;;;5095241;28;20442;-64
2021/12/06 07:32:48;;;;;;;0.50;0.50;;;;;;;;;;5095388;28;20571;-65
2021/12/06 07:35:15;;;;;;;0.50;0.50;;;;;;;;;;5077084;28;20666;-65
2021/12/06 07:37:41;;;;;;;0.50;0.50;;;;;;;;;;5095283;28;20544;-64
2021/12/06 07:40:08;;;;;;;0.50;0.50;;;;;;;;;;5095151;28;20180;-64
2021/12/06 07:42:34;;;;;;;0.50;0.50;;;;;;;;;;5095077;28;20408;-65
2021/12/06 07:45:01;;;;;;;0.50;0.50;;;;;;;;;;5095170;28;20171;-64
2021/12/06 07:47:27;;;;;;;0.60;0.60;;;;;;;;;;5095113;28;20169;-64
2021/12/06 07:49:53;;;;;;;0.60;0.60;;;;;;;;;;5095046;28;20194;-64
2021/12/06 07:52:19;;;;;;;0.50;0.50;;;;;;;;;;5094719;28;20701;-65
2021/12/06 07:54:45;;;;;;;0.50;0.50;;;;;;;;;;5093011;28;20488;-64
2021/12/06 07:57:11;;;;;;;0.50;0.50;;;;;;;;;;5099351;28;20521;-64
2021/12/06 07:59:38;;;;;;;0.40;0.40;;;;;;;;;;5096263;28;20410;-64
2021/12/06 08:02:05;;;;;;;0.50;0.50;;;;;;;;;;5091090;28;20184;-64
2021/12/06 08:04:31;;;;;;;0.60;0.60;;;;;;;;;;5075251;28;20198;-64
2021/12/06 08:06:57;;;;;;;0.60;0.60;;;;;;;;;;5094715;28;20180;-65
2021/12/06 08:09:23;;;;;;;0.50;0.50;;;;;;;;;;5094721;28;20177;-64
2021/12/06 08:11:49;;;;;;;0.60;0.60;;;;;;;;;;5094139;28;20495;-64
2021/12/06 08:14:15;;;;;;;0.50;0.50;;;;;;;;;;5094186;28;20850;-65
2021/12/06 08:16:43;;;;;;;0.50;0.50;;;;;;;;;;5094194;28;20287;-64
2021/12/06 08:19:09;;;;;;;0.50;0.50;;;;;;;;;;5094551;28;20406;-64
2021/12/06 08:21:35;;;;;;;0.40;0.40;;;;;;;;;;5094243;28;20196;-64
2021/12/06 08:24:02;;;;;;;0.50;0.50;;;;;;;;;;5094263;28;20207;-65
2021/12/06 08:26:31;;;;;;;0.50;0.50;;;;;;;;;;5093461;28;20173;-64
2021/12/06 08:28:57;;;;;;;0.50;0.50;;;;;;;;;;5094310;28;20166;-65
2021/12/06 08:31:23;;;;;;;0.50;0.50;;;;;;;;;;5094043;28;20551;-65
2021/12/06 08:33:50;;;;;;;0.50;0.50;;;;;;;;;;5094169;28;20252;-65
2021/12/06 08:36:17;;;;;;;0.50;0.50;;;;;;;;;;5075896;28;20282;-64
2021/12/06 08:38:43;;;;;;;0.60;0.60;;;;;;;;;;5093077;28;20177;-65
2021/12/06 08:41:11;;;;;;;0.50;0.50;;;;;;;;;;5075472;28;20313;-65
2021/12/06 08:43:38;;;;;;;0.50;0.50;;;;;;;;;;5094013;28;20192;-65
2021/12/06 08:46:09;;;;;;;0.50;0.50;;;;;;;;;;5094051;28;20182;-65
2021/12/06 08:48:36;;;;;;;0.50;0.50;;;;;;;;;;5093505;28;20258;-64
2021/12/06 08:51:05;;;;;;;0.50;0.50;;;;;;;;;;5093700;28;20181;-65
2021/12/06 08:53:31;;;;;;;0.50;0.50;;;;;;;;;;5093547;28;20677;-65
2021/12/06 08:55:57;;;;;;;0.50;0.50;;;;;;;;;;5075491;28;20198;-64
2021/12/06 08:58:23;;;;;;;0.50;0.50;;;;;;;;;;5093420;28;20680;-64
2021/12/06 09:00:50;;;;;;;0.50;0.50;;;;;;;;;;5092860;28;20171;-65
2021/12/06 09:03:16;;;;;;;0.50;0.50;;;;;;;;;;5093612;28;20196;-65
2021/12/06 09:05:44;;;;;;;0.50;0.50;;;;;;;;;;5093594;28;20170;-65
2021/12/06 09:08:10;;;;;;;0.40;0.40;;;;;;;;;;5094009;28;20187;-65
2021/12/06 09:10:37;;;;;;;0.50;0.50;;;;;;;;;;5092772;28;20233;-65
2021/12/06 09:13:04;;;;;;;0.60;0.60;;;;;;;;;;5113704;22;20222;-65
2021/12/06 09:15:30;;;;;;;0.60;0.60;;;;;;;;;;5092225;28;20184;-65
2021/12/06 09:17:57;;;;;;;0.50;0.50;;;;;;;;;;5093390;28;20172;-65
2021/12/06 09:20:25;;;;;;;0.50;0.50;;;;;;;;;;5093049;28;20260;-65
2021/12/06 09:22:51;;;;;;;0.50;0.50;;;;;;;;;;5093182;28;20207;-65
2021/12/06 09:25:18;;;;;;;0.50;0.50;;;;;;;;;;5093118;28;20187;-65
2021/12/06 09:27:44;;;;;;;0.50;0.50;;;;;;;;;;5093098;28;20265;-65
2021/12/06 09:30:11;;;;;;;0.50;0.50;;;;;;;;;;5092516;28;20168;-64
2021/12/06 09:32:38;;;;;;;0.52;0.52;;;;;;;;;;5092680;28;20169;-65
2021/12/06 09:35:04;;;;;;;0.50;0.50;;;;;;;;;;5092561;28;20277;-65
2021/12/06 09:37:31;;;;;;;0.50;0.50;;;;;;;;;;5092584;28;20653;-66
2021/12/06 09:39:58;;;;;;;0.50;0.50;;;;;;;;;;5092965;28;20195;-65
2021/12/06 09:42:25;;;;;;;0.50;0.50;;;;;;;;;;5092959;28;20733;-65
2021/12/06 09:44:51;;;;;;;0.50;0.50;;;;;;;;;;5092264;28;20185;-65
2021/12/06 09:47:17;;;;;;;0.40;0.40;;;;;;;;;;5092862;28;20175;-65
2021/12/06 09:49:43;;;;;;;0.50;0.50;;;;;;;;;;5092851;28;20442;-66
2021/12/06 09:52:09;;;;;;;0.50;0.50;;;;;;;;;;5087270;28;20221;-65
2021/12/06 09:54:37;;;;;;;0.50;0.50;;;;;;;;;;5072361;28;20423;-67
2021/12/06 09:57:04;;;;;;;0.50;0.50;;;;;;;;;;5072406;28;20201;-65
2021/12/06 09:59:31;;;;;;;0.50;0.50;;;;;;;;;;5072071;28;20252;-66
2021/12/06 10:01:59;;;;;;;0.50;0.50;;;;;;;;;;5072113;28;20185;-66
2021/12/06 10:04:26;;;;;;;0.50;0.50;;;;;;;;;;5054051;28;20705;-65
2021/12/06 10:06:53;;;;;;;0.60;0.60;;;;;;;;;;5072518;28;20658;-64
2021/12/06 10:09:19;;;;;;;0.50;0.50;;;;;;;;;;5071538;28;20675;-65
2021/12/06 10:11:45;;;;;;;0.40;0.40;;;;;;;;;;5071950;28;20180;-65
2021/12/06 10:14:12;;;;;;;0.60;0.60;;;;;;;;;;5071999;28;20216;-65
2021/12/06 10:16:39;;;;;;;0.50;0.50;;;;;;;;;;5072104;28;20201;-65
2021/12/06 10:19:05;;;;;;;0.50;0.50;;;;;;;;;;5072085;28;20581;-65
2021/12/06 10:21:32;;;;;;;0.50;0.50;;;;;;;;;;5053500;28;20218;-65
2021/12/06 10:23:59;;;;;;;0.60;0.60;;;;;;;;;;5071836;28;20205;-65
2021/12/06 10:26:27;;;;;;;0.50;0.50;;;;;;;;;;5072085;28;20178;-65
2021/12/06 10:29:01;;;;;;;0.60;0.60;;;;;;;;;;5071791;28;20173;-66
2021/12/06 10:31:27;;;;;;;0.50;0.50;;;;;;;;;;5071359;28;20178;-66
2021/12/06 10:33:55;;;;;;;0.50;0.50;;;;;;;;;;5071774;28;20201;-65
2021/12/06 10:36:21;;;;;;;0.50;0.50;;;;;;;;;;5071708;28;20193;-65
2021/12/06 10:38:52;;;;;;;0.50;0.50;;;;;;;;;;5071382;28;20182;-64
2021/12/06 10:41:20;;;;;;;0.50;0.50;;;;;;;;;;5071780;28;20203;-65
2021/12/06 10:43:52;;;;;;;0.50;0.50;;;;;;;;;;5053460;28;20565;-65
2021/12/06 10:46:18;;;;;;;0.50;0.50;;;;;;;;;;5071758;28;20171;-65
2021/12/06 10:48:46;;;;;;;0.50;0.50;;;;;;;;;;5071630;28;20257;-65
2021/12/06 10:51:14;;;;;;;0.50;0.50;;;;;;;;;;5071369;28;20189;-65
2021/12/06 10:53:46;;;;;;;0.50;0.50;;;;;;;;;;5071244;28;20190;-65
2021/12/06 10:56:17;;;;;;;0.50;0.50;;;;;;;;;;5053511;28;20300;-66
2021/12/06 10:58:44;;;;;;;0.50;0.50;;;;;;;;;;5071597;28;20210;-65
2021/12/06 11:01:12;;;;;;;0.60;0.60;;;;;;;;;;5071051;28;20258;-62
2021/12/06 11:03:41;;;;;;;0.50;0.50;;;;;;;;;;5077234;28;20741;-65
2021/12/06 11:06:10;;;;;;;0.50;0.50;;;;;;;;;;5078126;28;20177;-65
2021/12/06 11:08:37;;;;;;;0.50;0.50;;;;;;;;;;5078325;28;20178;-65
2021/12/06 11:11:05;;;;;;;0.50;0.50;;;;;;;;;;5077872;28;20260;-66
2021/12/06 11:13:34;;;;;;;0.50;0.50;;;;;;;;;;5077933;28;20292;-65
2021/12/06 11:16:03;;;;;;;0.52;0.52;;;;;;;;;;5077981;28;20555;-65
2021/12/06 11:18:37;;;;;;;0.50;0.50;;;;;;;;;;5078053;28;20312;-66
2021/12/06 11:21:04;;;;;;;0.50;0.50;;;;;;;;;;5077919;28;20556;-66
2021/12/06 11:23:30;;;;;;;0.50;0.50;;;;;;;;;;5077909;28;20201;-65
2021/12/06 11:26:01;;;;;;;0.50;0.50;;;;;;;;;;5078094;28;20173;-65
2021/12/06 11:28:29;;;;;;;0.50;0.50;;;;;;;;;;5078228;28;20174;-66
2021/12/06 11:31:02;;;;;;;0.40;0.40;;;;;;;;;;5078418;28;20178;-66
2021/12/06 11:33:33;;;;;;;0.50;0.50;;;;;;;;;;5078051;28;20197;-65
2021/12/06 11:36:00;;;;;;;0.40;0.40;;;;;;;;;;5077862;28;20198;-65
2021/12/06 11:38:30;;;;;;;0.50;0.50;;;;;;;;;;5077807;28;20203;-65
2021/12/06 11:40:58;;;;;;;0.50;0.50;;;;;;;;;;5077666;28;20578;-65
2021/12/06 11:43:24;;;;;;;0.50;0.50;;;;;;;;;;5077861;28;20242;-65
2021/12/06 11:45:52;;;;;;;0.50;0.50;;;;;;;;;;5075961;28;20187;-66
2021/12/06 11:48:37;;;;;;;0.50;0.50;;;;;;;;;;5078039;28;20412;-65
2021/12/06 11:51:06;;;;;;;0.55;0.55;;;;;;;;;;5077371;28;20165;-65
2021/12/06 11:53:35;;;;;;;0.55;0.55;;;;;;;;;;5077780;28;20592;-65
2021/12/06 11:56:03;;;;;;;0.50;0.50;;;;;;;;;;5077714;28;20268;-65
2021/12/06 11:58:32;;;;;;;0.50;0.50;;;;;;;;;;5077780;28;20573;-65
2021/12/06 12:01:03;;;;;;;0.50;0.50;;;;;;;;;;5076971;28;20181;-65
2021/12/06 12:03:30;;;;;;;0.50;0.50;;;;;;;;;;5059511;28;20197;-66
2021/12/06 12:05:56;;;;;;;0.50;0.50;;;;;;;;;;5076550;28;20220;-66
2021/12/06 12:08:22;;;;;;;0.50;0.50;;;;;;;;;;5076892;28;20597;-65
2021/12/06 12:10:50;;;;;;;0.40;0.40;;;;;;;;;;5077331;28;20166;-66
2021/12/06 12:13:28;;;;;;;0.60;0.60;;;;;;;;;;5075906;28;20301;-65
2021/12/06 12:15:55;;;;;;;0.50;0.50;;;;;;;;;;5073816;28;20205;-66
2021/12/06 12:18:22;;;;;;;0.50;0.50;;;;;;;;;;5074161;28;20172;-65
2021/12/06 12:20:49;;;;;;;0.50;0.50;;;;;;;;;;5073943;28;20235;-65
2021/12/06 12:23:15;;;;;;;0.50;0.50;;;;;;;;;;5073678;28;20238;-65
2021/12/06 12:26:20;;;;;;;0.50;0.50;;;;;;;;;;5074194;28;20204;-66
2021/12/06 12:28:39;;;;;;;0.50;0.50;;;;;;;;;;5070872;28;20234;-64
2021/12/06 12:31:06;;;;;;;0.50;0.50;;;;;;;;;;5073740;28;20171;-66
2021/12/06 12:33:32;;;;;;;0.50;0.50;;;;;;;;;;5073640;28;20184;-65
2021/12/06 12:36:02;;;;;;;0.50;0.50;;;;;;;;;;5073488;28;20285;-66
2021/12/06 12:38:29;;;;;;;0.50;0.50;;;;;;;;;;5073828;28;20658;-66
2021/12/06 12:40:57;;;;;;;0.50;0.50;;;;;;;;;;5055534;28;20165;-65
2021/12/06 12:43:25;;;;;;;0.50;0.50;;;;;;;;;;5073415;28;20197;-66
2021/12/06 12:45:53;;;;;;;0.50;0.50;;;;;;;;;;5073189;28;20177;-66
2021/12/06 12:48:23;;;;;;;0.50;0.50;;;;;;;;;;5073781;28;20171;-66
2021/12/06 12:51:01;;;;;;;0.57;0.57;;;;;;;;;;5073546;28;20167;-65
2021/12/06 12:53:27;;;;;;;0.50;0.50;;;;;;;;;;5073506;28;20186;-65
2021/12/06 12:55:53;;;;;;;0.40;0.40;;;;;;;;;;5073168;28;20203;-66
2021/12/06 12:58:20;;;;;;;0.40;0.40;;;;;;;;;;5072826;28;21021;-66
2021/12/06 13:00:49;;;;;;;0.50;0.50;;;;;;;;;;5068625;28;20529;-67
2021/12/06 13:03:34;;;;;;;0.50;0.50;;;;;;;;;;5073400;28;20225;-65
2021/12/06 13:06:20;;;;;;;0.50;0.50;;;;;;;;;;5074045;28;20232;-64
2021/12/06 13:08:47;;;;;;;0.50;0.50;;;;;;;;;;5072851;28;20642;-66
2021/12/06 13:11:13;;;;;;;0.50;0.50;;;;;;;;;;5073030;28;20171;-66
2021/12/06 13:13:45;;;;;;;0.50;0.50;;;;;;;;;;5073116;28;20207;-66
2021/12/06 13:19:15;;;;;;;0.50;0.50;;;;;;;;;;5072738;28;20180;-65
2021/12/06 13:21:50;;;;;;;0.50;0.50;;;;;;;;;;5072809;28;20261;-66
2021/12/06 13:24:16;;;;;;;0.43;0.43;;;;;;;;;;5073128;28;20286;-66
2021/12/06 13:26:52;;;;;;;0.40;0.40;;;;;;;;;;5072757;28;20175;-65
2021/12/06 13:29:22;;;;;;;0.50;0.50;;;;;;;;;;5072755;28;20177;-65
2021/12/06 13:31:48;;;;;;;0.60;0.60;;;;;;;;;;5072598;28;20176;-65
2021/12/06 13:34:25;;;;;;;0.40;0.40;;;;;;;;;;5072657;28;20200;-65
2021/12/06 13:36:52;;;;;;;0.50;0.50;;;;;;;;;;5054761;28;20454;-66
2021/12/06 13:39:30;;;;;;;0.50;0.50;;;;;;;;;;5070766;28;20601;-65
2021/12/06 13:41:56;;;;;;;0.50;0.50;;;;;;;;;;5072028;28;20588;-66
2021/12/06 13:44:37;;;;;;;0.50;0.50;;;;;;;;;;5072387;28;20187;-66
2021/12/06 13:47:08;;;;;;;0.50;0.50;;;;;;;;;;5071765;28;20178;-66
2021/12/06 13:49:35;;;;;;;0.50;0.50;;;;;;;;;;5072723;28;20205;-66
2021/12/06 13:52:02;;;;;;;0.50;0.50;;;;;;;;;;5072258;28;20178;-66
2021/12/06 13:54:36;;;;;;;0.40;0.40;;;;;;;;;;5072280;28;20278;-63
2021/12/06 13:57:07;;;;;;;0.50;0.50;;;;;;;;;;5072064;28;20228;-65
2021/12/06 13:59:40;;;;;;;0.50;0.50;;;;;;;;;;5072369;28;20201;-67
2021/12/06 14:02:06;;;;;;;0.50;0.50;;;;;;;;;;5072012;28;20554;-65
2021/12/06 14:04:34;;;;;;;0.50;0.50;;;;;;;;;;5072051;28;20563;-64
2021/12/06 14:07:05;;;;;;;0.60;0.60;;;;;;;;;;5072217;28;20216;-66
2021/12/06 14:09:32;;;;;;;0.50;0.50;;;;;;;;;;5071736;28;20189;-64
2021/12/06 14:12:00;;;;;;;0.50;0.50;;;;;;;;;;5071913;28;20175;-66
2021/12/06 14:14:27;;;;;;;0.50;0.50;;;;;;;;;;5072720;28;20725;-66
2021/12/06 14:16:53;;;;;;;0.50;0.50;;;;;;;;;;5054440;28;20743;-66
2021/12/06 14:19:23;;;;;;;0.50;0.50;;;;;;;;;;5071168;28;20707;-67
2021/12/06 14:21:51;;;;;;;0.50;0.50;;;;;;;;;;5071728;28;20541;-65
2021/12/06 14:24:17;;;;;;;0.50;0.50;;;;;;;;;;5071829;28;20194;-66
2021/12/06 14:26:44;;;;;;;0.50;0.50;;;;;;;;;;5071844;28;20178;-66
2021/12/06 14:29:21;;;;;;;0.50;0.50;;;;;;;;;;5053710;28;20920;-65
2021/12/06 14:31:48;;;;;;;0.50;0.50;;;;;;;;;;5070866;28;20254;-66
2021/12/06 14:34:15;;;;;;;0.50;0.50;;;;;;;;;;5071545;28;20602;-65
2021/12/06 14:36:43;;;;;;;0.50;0.50;;;;;;;;;;5070762;28;20282;-65
2021/12/06 14:39:13;;;;;;;0.40;0.40;;;;;;;;;;5071541;28;20162;-65
2021/12/06 14:42:02;;;;;;;0.50;0.50;;;;;;;;;;5071398;28;20639;-66
2021/12/06 14:44:34;;;;;;;0.50;0.50;;;;;;;;;;5057843;28;20220;-65
2021/12/06 14:47:00;;;;;;;0.50;0.50;;;;;;;;;;5071189;28;20228;-65
2021/12/06 14:49:26;;;;;;;0.57;0.57;;;;;;;;;;5071646;28;20178;-64
2021/12/06 14:51:53;;;;;;;0.50;0.50;;;;;;;;;;5070986;28;20212;-65
2021/12/06 14:54:25;;;;;;;0.40;0.40;;;;;;;;;;5071418;28;20280;-65
2021/12/06 14:56:55;;;;;;;0.50;0.50;;;;;;;;;;5070984;28;20206;-65
2021/12/06 14:59:25;;;;;;;0.50;0.50;;;;;;;;;;5071629;28;20748;-65